F/V Matmaco — FVNS — position and weather

sailwx.info

Track history (hours):
 
Tides and Currents Weather Stations Pressure Air Temp Water Temp Dewpoint Dewpoint Depression Visibility Wind Speed Wind Dir Waves Ship Positions

F/V Matmaco

Last reported at 2016-Jul-28 03:33 UTC. Time now 2016-Jul-28 12:23 UTC.
Position N 46°38' W 002°54'.

Length 20 m.

Type: Other ship. MMSI: 228194000.

Date/timePositionNaut miles runAvg speedWind from/ knotsBaromVisibWave heightAir tempDewpointWater temp
2016-Jul-28 03:33N 46°38' W 002°54'23 9.9
2016-Jul-28 01:12N 46°60' W 002°43'710.0
2016-Jul-28 00:33N 47°06' W 002°40'10 9.7
2016-Jul-27 23:32N 47°15' W 002°35'4 3.9
2016-Jul-27 22:32N 47°18' W 002°31'2 2.3
2016-Jul-27 21:33N 47°18' W 002°34'10 9.6
2016-Jul-27 20:32N 47°09' W 002°39'9 9.2
2016-Jul-27 19:33N 47°01' W 002°44'33 1.9
2016-Jul-27 02:33N 46°28' W 002°49'4 3.5
2016-Jul-27 01:22N 46°31' W 002°53'1 0.2
2016-Jul-26 22:32N 46°32' W 002°52'3 1.0
2016-Jul-26 19:13N 46°30' W 002°57'8 0.7
2016-Jul-26 07:25N 46°30' W 003°09'11 2.8
2016-Jul-26 03:25N 46°36' W 002°55'3210.0
2016-Jul-26 00:15N 47°06' W 002°40'710.6
2016-Jul-25 23:34N 47°13' W 002°37'7 6.5
2016-Jul-25 22:33N 47°18' W 002°31'1 0.5
2016-Jul-25 20:07N 47°19' W 002°32'5 8.1
2016-Jul-25 19:33N 47°16' W 002°36'9 9.0
2016-Jul-25 18:33N 47°08' W 002°44'10 9.4
2016-Jul-25 17:31N 46°60' W 002°51'22 6.7
2016-Jul-25 14:12N 46°40' W 003°06'7 0.5
2016-Jul-25 00:28N 46°39' W 002°55'6 3.3
2016-Jul-24 22:31N 46°33' W 002°51'5 2.3
2016-Jul-24 20:30N 46°30' W 002°57'13 3.3
2016-Jul-24 16:33N 46°17' W 002°55'5 2.6
2016-Jul-24 14:33N 46°20' W 003°01'2 2.0
2016-Jul-24 13:33N 46°22' W 003°00'4 3.5
2016-Jul-24 12:33N 46°25' W 002°58'6 3.1
2016-Jul-24 10:28N 46°30' W 003°04'4 3.3
2016-Jul-24 09:20N 46°30' W 003°10'3 3.1
2016-Jul-24 08:26N 46°29' W 003°14'4 3.2
2016-Jul-24 07:13N 46°30' W 003°08'3 3.5
2016-Jul-24 06:26N 46°30' W 003°04'3 3.5
2016-Jul-24 05:26N 46°29' W 002°59'3 3.1
2016-Jul-24 04:29N 46°31' W 002°56'3 3.6
2016-Jul-24 03:33N 46°34' W 002°55'7 6.6
2016-Jul-24 02:31N 46°41' W 002°52'9 8.9
2016-Jul-24 01:29N 46°49' W 002°48'10 9.1
2016-Jul-24 00:25N 46°59' W 002°44'9 9.6
2016-Jul-23 23:30N 47°07' W 002°40'1010.4
2016-Jul-23 22:33N 47°17' W 002°36'4 0.2
2016-Jul-23 04:17N 47°18' W 002°31'0 0.1
2016-Jul-23 03:33N 47°18' W 002°31'0 0.1
2016-Jul-23 02:33N 47°18' W 002°31'1 0.6
2016-Jul-23 01:33N 47°18' W 002°31'8 7.9
2016-Jul-23 00:33N 47°13' W 002°40'9 8.6
2016-Jul-22 23:33N 47°06' W 002°47'8 8.5
2016-Jul-22 22:33N 46°59' W 002°55'8 8.1
2016-Jul-22 21:33N 46°52' W 003°02'6 5.9
2016-Jul-22 20:33N 46°48' W 003°07'2 2.1
2016-Jul-22 19:33N 46°46' W 003°05'4 3.3
2016-Jul-22 18:21N 46°43' W 003°08'3 3.5
2016-Jul-22 17:33N 46°41' W 003°11'3 0.8
2016-Jul-22 13:18N 46°39' W 003°15'3 2.9
2016-Jul-22 12:09N 46°42' W 003°11'2 3.4
2016-Jul-22 11:33N 46°40' W 003°12'6 0.4
2016-Jul-21 20:28N 46°42' W 003°04'3 3.3
2016-Jul-21 19:29N 46°40' W 003°07'3 3.0
2016-Jul-21 18:33N 46°37' W 003°09'4 3.3
2016-Jul-21 17:29N 46°39' W 003°14'14 1.3
2016-Jul-21 06:33N 46°52' W 003°08'10 9.9
2016-Jul-21 05:33N 46°60' W 002°58'10 9.9
2016-Jul-21 04:33N 47°07' W 002°49'10 9.7
2016-Jul-21 03:32N 47°14' W 002°38'6 6.3
2016-Jul-21 02:33N 47°18' W 002°31'0 0.0
2016-Jul-21 01:33N 47°18' W 002°31'2 2.4
2016-Jul-21 00:32N 47°18' W 002°34'10 9.7
2016-Jul-20 23:32N 47°09' W 002°41'9 8.9
2016-Jul-20 22:33N 47°02' W 002°47'31 3.1
2016-Jul-20 12:26N 46°32' W 003°01'7 1.4
2016-Jul-20 07:33N 46°30' W 003°11'7 3.7
2016-Jul-20 05:33N 46°29' W 002°60'4 3.2
2016-Jul-20 04:24N 46°32' W 002°56'3 3.5
2016-Jul-20 03:26N 46°35' W 002°55'3 3.0
2016-Jul-20 02:33N 46°36' W 002°51'3 3.0
2016-Jul-20 01:33N 46°33' W 002°50'4 3.1
2016-Jul-20 00:21N 46°35' W 002°55'3 3.5
2016-Jul-19 23:34N 46°37' W 002°56'3 3.2
2016-Jul-19 22:33N 46°40' W 002°57'3 2.8
2016-Jul-19 21:32N 46°43' W 002°58'3 3.6
2016-Jul-19 20:34N 46°44' W 003°03'4 2.0
2016-Jul-19 18:24N 46°48' W 003°07'3 3.4
2016-Jul-19 17:32N 46°49' W 003°11'3 2.7
2016-Jul-19 16:32N 46°46' W 003°09'3 3.1
2016-Jul-19 15:33N 46°44' W 003°06'3 0.8
2016-Jul-19 11:30N 46°44' W 003°10'3 2.8
2016-Jul-19 10:29N 46°43' W 003°14'3 2.7
2016-Jul-19 09:22N 46°44' W 003°18'2 2.0
2016-Jul-19 08:33N 46°45' W 003°19'4 3.5
2016-Jul-19 07:33N 46°43' W 003°16'11 3.8
2016-Jul-19 04:33N 46°43' W 002°59'5 4.8
2016-Jul-19 03:32N 46°47' W 002°54'9 9.3
2016-Jul-19 02:33N 46°55' W 002°49'9 8.9
2016-Jul-19 01:33N 47°03' W 002°44'9 9.2
2016-Jul-19 00:34N 47°12' W 002°38'8 8.2
2016-Jul-18 23:33N 47°19' W 002°33'2 1.6
2016-Jul-18 22:33N 47°18' W 002°31'  
Track history (hours):
 
Tides and Currents Weather Stations Pressure Air Temp Water Temp Dewpoint Dewpoint Depression Visibility Wind Speed Wind Dir Waves Ship Positions

F/V Matmaco

Last reported at 2016-Jul-28 03:33 UTC. Time now 2016-Jul-28 12:23 UTC.
Position N 46°38' W 002°54'.

Length 20 m.

Type: Other ship. MMSI: 228194000.

Date/timePositionNaut miles runAvg speedWind from/ knotsBaromVisibWave heightAir tempDewpointWater temp
2016-Jul-28 03:33N 46°38' W 002°54'23 9.9
2016-Jul-28 01:12N 46°60' W 002°43'710.0
2016-Jul-28 00:33N 47°06' W 002°40'10 9.7
2016-Jul-27 23:32N 47°15' W 002°35'4 3.9
2016-Jul-27 22:32N 47°18' W 002°31'2 2.3
2016-Jul-27 21:33N 47°18' W 002°34'10 9.6
2016-Jul-27 20:32N 47°09' W 002°39'9 9.2
2016-Jul-27 19:33N 47°01' W 002°44'33 1.9
2016-Jul-27 02:33N 46°28' W 002°49'4 3.5
2016-Jul-27 01:22N 46°31' W 002°53'1 0.2
2016-Jul-26 22:32N 46°32' W 002°52'3 1.0
2016-Jul-26 19:13N 46°30' W 002°57'8 0.7
2016-Jul-26 07:25N 46°30' W 003°09'11 2.8
2016-Jul-26 03:25N 46°36' W 002°55'3210.0
2016-Jul-26 00:15N 47°06' W 002°40'710.6
2016-Jul-25 23:34N 47°13' W 002°37'7 6.5
2016-Jul-25 22:33N 47°18' W 002°31'1 0.5
2016-Jul-25 20:07N 47°19' W 002°32'5 8.1
2016-Jul-25 19:33N 47°16' W 002°36'9 9.0
2016-Jul-25 18:33N 47°08' W 002°44'10 9.4
2016-Jul-25 17:31N 46°60' W 002°51'22 6.7
2016-Jul-25 14:12N 46°40' W 003°06'7 0.5
2016-Jul-25 00:28N 46°39' W 002°55'6 3.3
2016-Jul-24 22:31N 46°33' W 002°51'5 2.3
2016-Jul-24 20:30N 46°30' W 002°57'13 3.3
2016-Jul-24 16:33N 46°17' W 002°55'5 2.6
2016-Jul-24 14:33N 46°20' W 003°01'2 2.0
2016-Jul-24 13:33N 46°22' W 003°00'4 3.5
2016-Jul-24 12:33N 46°25' W 002°58'6 3.1
2016-Jul-24 10:28N 46°30' W 003°04'4 3.3
2016-Jul-24 09:20N 46°30' W 003°10'3 3.1
2016-Jul-24 08:26N 46°29' W 003°14'4 3.2
2016-Jul-24 07:13N 46°30' W 003°08'3 3.5
2016-Jul-24 06:26N 46°30' W 003°04'3 3.5
2016-Jul-24 05:26N 46°29' W 002°59'3 3.1
2016-Jul-24 04:29N 46°31' W 002°56'3 3.6
2016-Jul-24 03:33N 46°34' W 002°55'7 6.6
2016-Jul-24 02:31N 46°41' W 002°52'9 8.9
2016-Jul-24 01:29N 46°49' W 002°48'10 9.1
2016-Jul-24 00:25N 46°59' W 002°44'9 9.6
2016-Jul-23 23:30N 47°07' W 002°40'1010.4
2016-Jul-23 22:33N 47°17' W 002°36'4 0.2
2016-Jul-23 04:17N 47°18' W 002°31'0 0.1
2016-Jul-23 03:33N 47°18' W 002°31'0 0.1
2016-Jul-23 02:33N 47°18' W 002°31'1 0.6
2016-Jul-23 01:33N 47°18' W 002°31'8 7.9
2016-Jul-23 00:33N 47°13' W 002°40'9 8.6
2016-Jul-22 23:33N 47°06' W 002°47'8 8.5
2016-Jul-22 22:33N 46°59' W 002°55'8 8.1
2016-Jul-22 21:33N 46°52' W 003°02'6 5.9
2016-Jul-22 20:33N 46°48' W 003°07'2 2.1
2016-Jul-22 19:33N 46°46' W 003°05'4 3.3
2016-Jul-22 18:21N 46°43' W 003°08'3 3.5
2016-Jul-22 17:33N 46°41' W 003°11'3 0.8
2016-Jul-22 13:18N 46°39' W 003°15'3 2.9
2016-Jul-22 12:09N 46°42' W 003°11'2 3.4
2016-Jul-22 11:33N 46°40' W 003°12'6 0.4
2016-Jul-21 20:28N 46°42' W 003°04'3 3.3
2016-Jul-21 19:29N 46°40' W 003°07'3 3.0
2016-Jul-21 18:33N 46°37' W 003°09'4 3.3
2016-Jul-21 17:29N 46°39' W 003°14'14 1.3
2016-Jul-21 06:33N 46°52' W 003°08'10 9.9
2016-Jul-21 05:33N 46°60' W 002°58'10 9.9
2016-Jul-21 04:33N 47°07' W 002°49'10 9.7
2016-Jul-21 03:32N 47°14' W 002°38'6 6.3
2016-Jul-21 02:33N 47°18' W 002°31'0 0.0
2016-Jul-21 01:33N 47°18' W 002°31'2 2.4
2016-Jul-21 00:32N 47°18' W 002°34'10 9.7
2016-Jul-20 23:32N 47°09' W 002°41'9 8.9
2016-Jul-20 22:33N 47°02' W 002°47'31 3.1
2016-Jul-20 12:26N 46°32' W 003°01'7 1.4
2016-Jul-20 07:33N 46°30' W 003°11'7 3.7
2016-Jul-20 05:33N 46°29' W 002°60'4 3.2
2016-Jul-20 04:24N 46°32' W 002°56'3 3.5
2016-Jul-20 03:26N 46°35' W 002°55'3 3.0
2016-Jul-20 02:33N 46°36' W 002°51'3 3.0
2016-Jul-20 01:33N 46°33' W 002°50'4 3.1
2016-Jul-20 00:21N 46°35' W 002°55'3 3.5
2016-Jul-19 23:34N 46°37' W 002°56'3 3.2
2016-Jul-19 22:33N 46°40' W 002°57'3 2.8
2016-Jul-19 21:32N 46°43' W 002°58'3 3.6
2016-Jul-19 20:34N 46°44' W 003°03'4 2.0
2016-Jul-19 18:24N 46°48' W 003°07'3 3.4
2016-Jul-19 17:32N 46°49' W 003°11'3 2.7
2016-Jul-19 16:32N 46°46' W 003°09'3 3.1
2016-Jul-19 15:33N 46°44' W 003°06'3 0.8
2016-Jul-19 11:30N 46°44' W 003°10'3 2.8
2016-Jul-19 10:29N 46°43' W 003°14'3 2.7
2016-Jul-19 09:22N 46°44' W 003°18'2 2.0
2016-Jul-19 08:33N 46°45' W 003°19'4 3.5
2016-Jul-19 07:33N 46°43' W 003°16'11 3.8
2016-Jul-19 04:33N 46°43' W 002°59'5 4.8
2016-Jul-19 03:32N 46°47' W 002°54'9 9.3
2016-Jul-19 02:33N 46°55' W 002°49'9 8.9
2016-Jul-19 01:33N 47°03' W 002°44'9 9.2
2016-Jul-19 00:34N 47°12' W 002°38'8 8.2
2016-Jul-18 23:33N 47°19' W 002°33'2 1.6
2016-Jul-18 22:33N 47°18' W 002°31'  

Dump ship's entire track history